Time;durP1;ratioP1;P1;durP2;ratioP2;P2;SDS_P1;SDS_P2;PMS_P1;PMS_P2;Temp;Humidity;BMP_temperature;BMP_pressure;BME280_temperature;BME280_humidity;BME280_pressure;Samples;Min_cycle;Max_cycle;Signal;HPM_P1;HPM_P2
2021/04/25 06:02:08;;;;;;;5.35;2.45;;;;;;;5.94;50.61;100637.81;1788568;77;26199;-66
2021/04/25 06:04:35;;;;;;;3.85;2.08;;;;;;;6.19;49.09;100637.57;1795151;79;27122;-66
2021/04/25 06:07:01;;;;;;;4.92;2.67;;;;;;;6.42;48.73;100638.34;1795194;79;25551;-66
2021/04/25 06:09:28;;;;;;;4.60;2.62;;;;;;;6.67;47.83;100639.33;1794754;79;25513;-66
2021/04/25 06:11:55;;;;;;;4.35;2.42;;;;;;;6.93;47.35;100638.71;1795178;79;25619;-67
2021/04/25 06:14:22;;;;;;;5.25;2.87;;;;;;;7.16;47.05;100638.58;1794994;79;25559;-66
2021/04/25 06:16:49;;;;;;;5.03;2.30;;;;;;;7.40;46.26;100632.53;1779891;79;26358;-66
2021/04/25 06:19:16;;;;;;;4.20;2.05;;;;;;;7.61;45.88;100632.66;1770007;79;26318;-66
2021/04/25 06:21:43;;;;;;;7.37;3.12;;;;;;;7.90;44.80;100637.81;1784795;79;25842;-65
2021/04/25 06:24:10;;;;;;;5.50;2.80;;;;;;;8.14;43.91;100627.91;1794457;79;25685;-66
2021/04/25 06:26:37;;;;;;;4.30;2.15;;;;;;;8.38;43.82;100631.18;1779730;79;25549;-67
2021/04/25 06:29:04;;;;;;;2.47;1.55;;;;;;;8.63;43.23;100637.40;1765009;79;25738;-67
2021/04/25 06:31:34;;;;;;;3.25;1.30;;;;;;;8.88;41.95;100633.61;1771756;79;25603;-66
2021/04/25 06:34:03;;;;;;;3.60;2.02;;;;;;;9.13;40.89;100631.92;1768470;79;26327;-66
2021/04/25 06:36:31;;;;;;;5.85;3.10;;;;;;;9.38;40.61;100634.55;1742093;80;25570;-67
2021/04/25 06:38:58;;;;;;;5.78;2.83;;;;;;;9.65;40.47;100632.00;1774803;80;25568;-67
2021/04/25 06:41:27;;;;;;;4.45;2.72;;;;;;;9.87;39.60;100628.64;1737844;81;26227;-67
2021/04/25 06:43:57;;;;;;;3.23;1.93;;;;;;;10.08;39.18;100629.11;1745768;80;25613;-67
2021/04/25 06:46:23;;;;;;;10.68;6.22;;;;;;;10.27;38.10;100628.25;1751135;80;25556;-68
2021/04/25 06:48:50;;;;;;;3.58;2.25;;;;;;;10.50;38.11;100633.23;1728618;80;25647;-66
2021/04/25 06:51:17;;;;;;;4.00;1.98;;;;;;;10.77;37.24;100626.23;1752164;80;25684;-67
2021/04/25 06:53:46;;;;;;;3.37;1.90;;;;;;;10.98;36.39;100629.31;1749164;80;25803;-67
2021/04/25 06:56:13;;;;;;;3.02;1.77;;;;;;;11.15;36.58;100634.09;1773454;80;25601;-68
2021/04/25 06:58:40;;;;;;;2.52;1.80;;;;;;;11.37;35.68;100633.33;1767297;80;25665;-67
2021/04/25 07:01:08;;;;;;;1.90;1.52;;;;;;;11.60;35.23;100634.16;1771550;78;25545;-66
2021/04/25 07:03:34;;;;;;;3.12;1.82;;;;;;;11.88;35.01;100634.82;1770058;80;25930;-56
2021/04/25 07:06:01;;;;;;;2.87;1.62;;;;;;;12.19;34.85;100638.70;1736304;81;25722;-55
2021/04/25 07:08:28;;;;;;;2.45;1.47;;;;;;;12.48;34.14;100632.77;1739115;82;25561;-63
2021/04/25 07:10:56;;;;;;;1.70;1.32;;;;;;;12.73;33.73;100633.98;1776840;80;25667;-64
2021/04/25 07:13:22;;;;;;;4.20;1.40;;;;;;;12.97;33.02;100632.20;1769177;79;26016;-56
2021/04/25 07:15:52;;;;;;;1.45;1.30;;;;;;;13.22;32.67;100631.20;1736636;81;25673;-65
2021/04/25 07:18:19;;;;;;;2.33;1.22;;;;;;;13.42;32.10;100632.53;1749839;80;25705;-64
2021/04/25 07:20:47;;;;;;;2.33;1.20;;;;;;;13.68;31.85;100631.15;1751472;80;25681;-64
2021/04/25 07:23:15;;;;;;;3.62;1.57;;;;;;;13.95;30.95;100627.84;1745861;80;26256;-63
2021/04/25 07:25:41;;;;;;;1.92;1.15;;;;;;;13.99;29.96;100628.20;1774905;80;25548;-64
2021/04/25 07:28:08;;;;;;;2.35;1.20;;;;;;;14.14;30.01;100626.11;1767745;80;25529;-64
2021/04/25 07:30:37;;;;;;;5.62;2.35;;;;;;;14.36;29.70;100629.16;1751837;80;26235;-64
2021/04/25 07:33:05;;;;;;;2.50;2.02;;;;;;;14.46;28.46;100627.43;1772979;79;25652;-63
2021/04/25 07:35:32;;;;;;;2.08;1.37;;;;;;;14.63;28.77;100630.66;1775725;80;25729;-63
2021/04/25 07:37:59;;;;;;;2.95;1.60;;;;;;;14.83;27.88;100633.75;1802311;79;25631;-63
2021/04/25 07:40:27;;;;;;;3.85;1.50;;;;;;;14.91;28.04;100626.92;1778254;80;25633;-63
2021/04/25 07:42:53;;;;;;;3.52;1.80;;;;;;;15.09;27.61;100627.59;1778702;78;25693;-63
2021/04/25 07:45:20;;;;;;;2.83;1.62;;;;;;;15.06;26.95;100625.52;1789960;79;25682;-63
2021/04/25 07:47:48;;;;;;;3.17;1.65;;;;;;;15.05;26.53;100619.85;1763966;78;25569;-63
2021/04/25 07:50:16;;;;;;;2.12;1.20;;;;;;;15.03;26.77;100622.66;1772001;79;26075;-64
2021/04/25 07:52:43;;;;;;;2.27;1.52;;;;;;;15.24;26.80;100628.93;1772853;79;25549;-64
2021/04/25 07:55:11;;;;;;;1.85;1.40;;;;;;;15.50;26.03;100629.28;1723513;80;25725;-63
2021/04/25 07:57:39;;;;;;;2.45;1.30;;;;;;;15.62;25.81;100630.69;1773685;80;25690;-63
2021/04/25 08:00:09;;;;;;;2.15;1.60;;;;;;;15.80;25.48;100625.09;1772214;80;25629;-64
2021/04/25 08:02:36;;;;;;;2.75;1.82;;;;;;;16.06;25.88;100626.20;1772014;79;25594;-64
2021/04/25 08:05:07;;;;;;;2.47;1.55;;;;;;;16.48;26.08;100623.31;1773270;80;25692;-64
2021/04/25 08:07:34;;;;;;;2.15;1.30;;;;;;;16.76;25.68;100617.94;1772461;80;25711;-64
2021/04/25 08:10:02;;;;;;;3.87;1.62;;;;;;;17.04;25.22;100614.51;1772744;80;25660;-65
2021/04/25 08:12:29;;;;;;;2.60;1.60;;;;;;;17.25;24.54;100618.46;1774426;80;25549;-64
2021/04/25 08:14:55;;;;;;;2.77;1.72;;;;;;;17.36;22.56;100614.66;1773877;80;25477;-65
2021/04/25 08:17:22;;;;;;;2.27;1.60;;;;;;;17.49;23.81;100616.21;1773663;80;25193;-64
2021/04/25 08:19:48;;;;;;;3.30;1.70;;;;;;;17.25;23.52;100617.09;1774271;80;25756;-65
2021/04/25 08:22:16;;;;;;;2.25;1.40;;;;;;;16.93;23.56;100610.09;1774202;80;25535;-65
2021/04/25 08:24:43;;;;;;;2.72;1.98;;;;;;;17.02;24.11;100609.17;1773351;80;25562;-65
2021/04/25 08:27:10;;;;;;;1.85;1.07;;;;;;;16.64;22.98;100615.23;1773607;80;25650;-65
2021/04/25 08:29:37;;;;;;;2.60;1.37;;;;;;;15.85;21.93;100607.97;1774281;80;25619;-64
2021/04/25 08:32:05;;;;;;;2.15;1.50;;;;;;;15.66;23.05;100598.91;1774226;80;25768;-65
2021/04/25 08:34:32;;;;;;;1.95;1.25;;;;;;;16.14;22.77;100603.48;1749879;80;25650;-65
2021/04/25 08:36:58;;;;;;;2.08;0.85;;;;;;;16.47;22.88;100604.55;1775601;80;25730;-65
2021/04/25 08:39:25;;;;;;;2.08;0.98;;;;;;;16.52;20.64;100603.73;1767599;80;25983;-65
2021/04/25 08:41:55;;;;;;;3.20;1.40;;;;;;;16.46;21.80;100598.84;1763608;80;25654;-64
2021/04/25 08:44:23;;;;;;;18.52;10.63;;;;;;;16.92;22.34;100596.20;1767810;79;25933;-63
2021/04/25 08:46:51;;;;;;;2.87;1.50;;;;;;;17.47;22.43;100599.36;1742709;80;25561;-64
2021/04/25 08:49:25;;;;;;;2.37;1.75;;;;;;;18.11;22.34;100597.55;1741473;82;25747;-64
2021/04/25 08:51:55;;;;;;;2.98;0.80;;;;;;;18.46;21.84;100592.73;1741844;82;26248;-64
2021/04/25 08:54:27;;;;;;;1.65;0.90;;;;;;;18.91;21.23;100593.37;1741783;81;25626;-64
2021/04/25 08:56:58;;;;;;;1.75;1.20;;;;;;;19.32;21.51;100588.34;1741802;82;26595;-64
2021/04/25 08:59:24;;;;;;;3.55;1.10;;;;;;;19.40;21.10;100579.70;1713328;82;25594;-66
2021/04/25 09:01:51;;;;;;;1.72;0.93;;;;;;;18.89;20.68;100590.20;1740321;80;25628;-66
2021/04/25 09:04:18;;;;;;;1.92;0.98;;;;;;;18.22;20.45;100586.09;1736047;82;25731;-67
2021/04/25 09:07:11;;;;;;;3.33;1.20;;;;;;;17.63;20.84;100584.35;1736578;82;26118;-67
2021/04/25 09:09:58;;;;;;;2.08;0.90;;;;;;;17.11;20.57;100579.77;1715364;82;25924;-67
2021/04/25 09:12:39;;;;;;;1.98;1.40;;;;;;;16.68;20.50;100573.79;1736866;82;25662;-67
2021/04/25 09:15:14;;;;;;;3.90;1.22;;;;;;;16.57;20.65;100574.05;1737279;82;25526;-66
2021/04/25 09:17:56;;;;;;;1.50;1.00;;;;;;;16.85;21.16;100576.08;1731274;82;26196;-65
2021/04/25 09:20:36;;;;;;;3.20;1.05;;;;;;;17.06;19.64;100571.27;1737360;82;25574;-67
2021/04/25 09:23:24;;;;;;;2.08;1.25;;;;;;;17.12;20.25;100569.86;1734188;82;26144;-67
2021/04/25 09:26:00;;;;;;;1.30;1.00;;;;;;;17.12;20.08;100566.34;1737023;82;25589;-64
2021/04/25 09:28:28;;;;;;;1.67;1.05;;;;;;;16.88;20.12;100569.94;1745860;81;25532;-64
2021/04/25 09:31:00;;;;;;;1.55;1.10;;;;;;;16.70;20.45;100561.16;1745770;82;26290;-66
2021/04/25 09:33:29;;;;;;;2.87;1.10;;;;;;;16.62;20.49;100557.43;1745629;82;26226;-65
2021/04/25 09:36:00;;;;;;;2.02;1.10;;;;;;;16.32;20.84;100557.66;1725394;82;26787;-67
2021/04/25 09:38:34;;;;;;;3.25;2.25;;;;;;;16.12;20.82;100554.47;1745718;82;25574;-64
2021/04/25 09:41:01;;;;;;;10.88;6.42;;;;;;;15.89;20.82;100562.30;1745681;82;25566;-64
2021/04/25 09:43:40;;;;;;;1.75;1.42;;;;;;;15.54;21.08;100558.53;1745885;82;25901;-64
2021/04/25 09:46:07;;;;;;;1.85;1.02;;;;;;;15.28;21.07;100554.12;1746008;81;25544;-64
2021/04/25 09:48:35;;;;;;;2.47;1.20;;;;;;;15.02;21.39;100557.86;1745579;82;25781;-63
2021/04/25 09:51:26;;;;;;;3.60;1.27;;;;;;;14.79;21.57;100560.09;1749479;80;25643;-65
2021/04/25 09:54:00;;;;;;;2.33;0.95;;;;;;;14.50;21.95;100558.17;1769785;80;25562;-65
2021/04/25 09:56:39;;;;;;;3.33;0.82;;;;;;;14.19;22.15;100560.07;1748766;80;25566;-66
2021/04/25 09:59:08;;;;;;;2.08;1.00;;;;;;;13.91;22.36;100561.07;1702027;82;25585;-65
2021/04/25 10:01:42;;;;;;;1.33;0.93;;;;;;;13.68;22.45;100556.41;1718010;81;25854;-64
2021/04/25 10:04:35;;;;;;;1.67;1.10;;;;;;;13.50;22.70;100558.37;1764505;81;25603;-65
2021/04/25 10:07:05;;;;;;;2.72;1.20;;;;;;;13.35;22.81;100556.12;1764656;81;25688;-65
2021/04/25 10:09:32;;;;;;;1.57;1.10;;;;;;;13.27;23.25;100557.70;1764586;81;25604;-64
2021/04/25 10:12:03;;;;;;;2.22;1.00;;;;;;;13.27;23.29;100558.50;1764251;81;25560;-65
2021/04/25 10:14:33;;;;;;;1.50;0.90;;;;;;;13.59;23.10;100555.63;1733036;81;26009;-64
2021/04/25 10:17:03;;;;;;;4.78;1.20;;;;;;;13.57;22.80;100557.84;1764335;81;25605;-64
2021/04/25 10:19:30;;;;;;;;;;;;;;;13.50;22.54;100558.37;1767416;81;25646;-64
2021/04/25 10:21:58;;;;;;;1.72;1.17;;;;;;;13.26;22.75;100560.17;1764815;81;25619;-64
2021/04/25 10:24:24;;;;;;;1.65;0.80;;;;;;;13.17;23.18;100555.31;1732325;81;25688;-64
2021/04/25 10:27:03;;;;;;;13.80;7.05;;;;;;;13.06;23.24;100557.56;1764894;81;25768;-64
2021/04/25 10:29:53;;;;;;;2.67;1.80;;;;;;;12.95;23.38;100551.63;1764707;81;25593;-64
2021/04/25 10:32:21;;;;;;;1.30;0.80;;;;;;;12.93;23.57;100553.86;1764579;81;25616;-64
2021/04/25 10:34:50;;;;;;;2.05;0.85;;;;;;;12.91;23.17;100552.59;1764738;81;25615;-64
2021/04/25 10:37:18;;;;;;;1.80;1.35;;;;;;;12.94;23.30;100551.94;1753811;80;25739;-64
2021/04/25 10:39:55;;;;;;;1.77;1.10;;;;;;;13.02;23.25;100553.86;1783739;80;27126;-64
2021/04/25 10:42:29;;;;;;;3.40;0.93;;;;;;;13.11;23.45;100557.41;1756287;81;25573;-55
2021/04/25 10:45:03;;;;;;;2.45;0.85;;;;;;;13.25;23.91;100558.59;1784005;80;26250;-55
2021/04/25 10:47:32;;;;;;;1.80;1.30;;;;;;;13.37;23.64;100565.56;1783109;80;26254;-55
2021/04/25 10:50:15;;;;;;;2.83;1.10;;;;;;;13.37;23.67;100568.28;1755890;81;25701;-55
2021/04/25 10:52:47;;;;;;;1.20;0.98;;;;;;;13.51;23.60;100565.95;1783126;80;26290;-55
2021/04/25 10:58:11;;;;;;;1.42;1.10;;;;;;;14.37;23.76;100562.73;1847950;76;35764;-55
2021/04/25 11:00:44;;;;;;;2.75;1.32;;;;;;;15.21;24.13;100572.37;1818029;78;25540;-56
2021/04/25 11:03:22;;;;;;;2.85;2.22;;;;;;;15.81;23.44;100563.98;1787367;78;26140;-56
2021/04/25 11:05:52;;;;;;;2.98;1.17;;;;;;;15.92;22.92;100571.14;1814730;78;25758;-55
2021/04/25 11:08:39;;;;;;;1.30;1.07;;;;;;;15.85;22.99;100565.70;1817972;78;25583;-55
2021/04/25 11:13:46;;;;;;;1.52;1.07;;;;;;;15.66;22.85;100577.09;1887402;76;25500;-57
2021/04/25 11:16:30;;;;;;;0.95;0.72;;;;;;;15.42;22.90;100564.16;1858157;77;26311;-55
2021/04/25 11:23:03;;;;;;;3.17;1.60;;;;;;;15.15;23.31;100567.45;1750772;81;25617;-55
2021/04/25 11:25:41;;;;;;;2.65;1.27;;;;;;;14.99;23.62;100563.97;1850397;76;27728;-55
2021/04/25 11:28:13;;;;;;;3.47;1.60;;;;;;;14.81;23.43;100572.02;1848614;77;25548;-55
2021/04/25 11:30:43;;;;;;;3.65;1.35;;;;;;;14.58;23.58;100569.58;1841094;77;25918;-56
2021/04/25 11:33:33;;;;;;;1.92;1.30;;;;;;;14.37;23.94;100560.80;1778796;80;25728;-56
2021/04/25 11:36:36;;;;;;;1.60;1.10;;;;;;;14.17;24.00;100573.78;1783896;80;25670;-55
2021/04/25 11:39:06;;;;;;;1.80;1.10;;;;;;;13.82;24.07;100571.97;1688901;84;25729;-55
2021/04/25 11:41:33;;;;;;;2.15;1.00;;;;;;;13.53;24.48;100575.36;1730866;82;25769;-55
2021/04/25 11:44:00;;;;;;;1.50;1.15;;;;;;;13.33;24.71;100576.84;1730578;82;25775;-55
2021/04/25 11:46:32;;;;;;;3.27;1.57;;;;;;;13.14;25.09;100573.03;1730382;82;25680;-55
2021/04/25 11:49:01;;;;;;;4.12;1.47;;;;;;;12.97;25.18;100575.17;1730605;82;25684;-55
2021/04/25 11:51:29;;;;;;;3.13;1.50;;;;;;;12.92;25.53;100579.97;1730811;82;25700;-56
2021/04/25 11:53:56;;;;;;;2.25;1.30;;;;;;;12.90;25.76;100574.86;1730564;82;25693;-56
2021/04/25 11:56:32;;;;;;;1.30;1.10;;;;;;;13.04;25.72;100580.95;1730611;82;25951;-55
2021/04/25 11:59:10;;;;;;;3.00;1.60;;;;;;;12.99;25.44;100574.86;1816528;78;33282;-55
2021/04/25 12:01:37;;;;;;;1.47;1.37;;;;;;;12.88;25.60;100571.09;1787420;80;25688;-55
2021/04/25 12:04:05;;;;;;;1.80;1.10;;;;;;;12.78;25.71;100582.83;1755734;81;25747;-55
2021/04/25 12:06:49;;;;;;;2.55;1.67;;;;;;;12.65;25.79;100577.22;1743085;81;26299;-55
2021/04/25 12:09:17;;;;;;;2.12;1.42;;;;;;;12.45;25.98;100585.95;1736797;82;25581;-55
2021/04/25 12:11:44;;;;;;;3.67;1.67;;;;;;;12.47;26.51;100584.50;1760767;81;25621;-55
2021/04/25 12:14:20;;;;;;;3.05;1.20;;;;;;;12.49;26.37;100589.61;1760724;81;25657;-56
2021/04/25 12:16:47;;;;;;;3.02;1.35;;;;;;;12.66;26.69;100578.80;1760592;81;25785;-57
2021/04/25 12:19:24;;;;;;;1.70;0.90;;;;;;;12.84;26.68;100576.14;1760743;81;25722;-55
2021/04/25 12:21:51;;;;;;;2.77;1.30;;;;;;;12.88;26.56;100573.81;1760835;81;25577;-56
2021/04/25 12:24:23;;;;;;;3.83;1.62;;;;;;;12.94;26.43;100574.48;1760488;81;25762;-55
2021/04/25 12:26:50;;;;;;;2.98;1.25;;;;;;;13.26;26.24;100580.55;1760950;81;25616;-57
2021/04/25 12:29:35;;;;;;;1.17;0.90;;;;;;;13.85;25.76;100578.67;1760712;81;25705;-55
2021/04/25 12:32:04;;;;;;;1.85;1.22;;;;;;;14.36;24.91;100566.56;1760237;81;25561;-56
2021/04/25 12:34:32;;;;;;;1.82;0.98;;;;;;;14.42;24.43;100567.17;1719573;81;25686;-55
2021/04/25 12:37:01;;;;;;;1.07;0.80;;;;;;;14.23;23.86;100571.09;1760643;81;25864;-55
2021/04/25 12:39:41;;;;;;;1.62;1.10;;;;;;;13.95;23.70;100573.45;1760668;81;25647;-56
2021/04/25 12:42:21;;;;;;;3.15;1.80;;;;;;;13.77;23.62;100572.15;1760912;81;25701;-55
2021/04/25 12:44:48;;;;;;;3.02;1.70;;;;;;;13.50;23.46;100576.03;1706758;81;25900;-56
2021/04/25 12:47:15;;;;;;;4.85;1.50;;;;;;;13.22;23.58;100576.31;1756383;81;26323;-56
2021/04/25 12:49:42;;;;;;;2.40;1.57;;;;;;;13.00;23.92;100568.33;1787807;80;25619;-56
2021/04/25 12:52:10;;;;;;;2.25;1.30;;;;;;;12.96;24.36;100569.52;1759015;81;25604;-56
2021/04/25 12:54:43;;;;;;;1.75;1.35;;;;;;;12.95;24.18;100567.91;1759138;81;28004;-56
2021/04/25 12:57:11;;;;;;;2.20;1.47;;;;;;;13.07;24.60;100566.72;1758146;81;25686;-55
2021/04/25 12:59:39;;;;;;;2.50;1.10;;;;;;;13.30;24.62;100573.91;1729181;82;26207;-55
2021/04/25 13:02:10;;;;;;;2.67;1.27;;;;;;;13.36;25.13;100575.39;1710671;83;25811;-55
2021/04/25 13:04:49;;;;;;;1.65;1.20;;;;;;;13.21;25.42;100567.13;1731137;82;26308;-55
2021/04/25 13:07:32;;;;;;;;;;;;;;;12.98;25.84;100561.85;1712806;83;26321;-55
2021/04/25 13:10:09;;;;;;;1.60;1.10;;;;;;;12.97;26.33;100573.81;1710074;83;25590;-54
2021/04/25 13:12:46;;;;;;;2.65;1.22;;;;;;;12.92;26.88;100567.75;1738226;82;25561;-56
2021/04/25 13:15:18;;;;;;;2.12;1.62;;;;;;;12.99;26.84;100568.89;1737942;82;26269;-55
2021/04/25 13:18:06;;;;;;;1.87;1.10;;;;;;;12.90;26.73;100573.50;1738037;82;25689;-55
2021/04/25 13:20:50;;;;;;;7.37;1.40;;;;;;;12.71;26.60;100569.16;1738034;82;25953;-55
2021/04/25 13:23:26;;;;;;;2.72;1.47;;;;;;;12.55;26.79;100565.84;1738256;82;25751;-56
2021/04/25 13:25:57;;;;;;;2.37;1.20;;;;;;;12.41;26.88;100565.97;1738081;82;25865;-56
2021/04/25 13:28:28;;;;;;;1.72;1.00;;;;;;;12.54;27.03;100566.97;1738901;82;25612;-55
2021/04/25 13:31:02;;;;;;;3.15;1.47;;;;;;;12.71;26.63;100558.30;1738992;82;25612;-56
2021/04/25 13:33:32;;;;;;;1.80;1.50;;;;;;;12.76;26.72;100561.99;1737654;81;25938;-56
2021/04/25 13:36:04;;;;;;;2.45;1.45;;;;;;;12.74;26.54;100560.95;1738810;82;25807;-55
2021/04/25 13:38:31;;;;;;;3.87;1.87;;;;;;;12.67;26.20;100563.34;1738271;82;25624;-56
2021/04/25 13:41:03;;;;;;;2.40;0.90;;;;;;;12.52;26.38;100564.58;1714064;82;25648;-56
2021/04/25 13:43:30;;;;;;;3.22;1.50;;;;;;;12.46;26.51;100558.50;1738707;82;25612;-56
2021/04/25 13:45:58;;;;;;;2.22;1.12;;;;;;;12.37;26.56;100565.80;1738931;82;26630;-56
2021/04/25 13:48:24;;;;;;;2.92;1.00;;;;;;;12.33;26.58;100560.77;1717136;82;25687;-55
2021/04/25 13:50:53;;;;;;;3.95;1.00;;;;;;;12.26;26.65;100567.18;1740366;82;25651;-56
2021/04/25 13:53:19;;;;;;;4.12;2.20;;;;;;;12.27;26.70;100564.16;1713139;82;25583;-55
2021/04/25 13:55:46;;;;;;;16.93;10.53;;;;;;;12.21;26.53;100562.72;1740624;82;25979;-56
2021/04/25 13:58:14;;;;;;;2.90;2.00;;;;;;;12.26;26.95;100563.11;1750533;81;25774;-55
2021/04/25 14:00:41;;;;;;;2.25;1.17;;;;;;;12.37;26.78;100560.94;1767822;81;25617;-55
2021/04/25 14:03:08;;;;;;;2.22;1.10;;;;;;;12.51;27.01;100556.18;1786964;80;25659;-56
2021/04/25 14:05:36;;;;;;;2.47;1.27;;;;;;;12.91;26.90;100548.53;1787035;80;25553;-55
2021/04/25 14:08:04;;;;;;;2.65;1.17;;;;;;;13.43;27.06;100546.63;1787142;80;25599;-55
2021/04/25 14:10:31;;;;;;;1.47;1.00;;;;;;;13.87;26.71;100541.64;1787046;80;25911;-56
2021/04/25 14:12:58;;;;;;;2.67;1.30;;;;;;;13.96;26.63;100550.02;1758479;80;25646;-55
2021/04/25 14:15:29;;;;;;;2.85;1.12;;;;;;;14.14;26.48;100539.84;1786877;80;25623;-55
2021/04/25 14:17:58;;;;;;;4.75;1.60;;;;;;;14.22;26.29;100539.59;1755764;81;25656;-57
2021/04/25 14:20:27;;;;;;;6.30;2.95;;;;;;;14.42;26.25;100535.33;1791934;79;25619;-57
2021/04/25 14:22:55;;;;;;;4.05;2.00;;;;;;;14.65;26.16;100539.14;1763434;80;25793;-56
2021/04/25 14:25:25;;;;;;;3.05;1.82;;;;;;;14.86;25.86;100548.11;1768456;81;25627;-56
2021/04/25 14:27:53;;;;;;;3.05;2.00;;;;;;;15.06;25.90;100553.91;1768287;81;25620;-56
2021/04/25 14:30:24;;;;;;;4.43;2.23;;;;;;;15.20;25.78;100550.91;1800231;79;25591;-56
2021/04/25 14:32:53;;;;;;;3.30;1.52;;;;;;;15.02;25.27;100549.69;1786310;80;25748;-57
2021/04/25 14:35:21;;;;;;;3.77;1.90;;;;;;;14.66;25.21;100559.77;1767226;81;25765;-57
2021/04/25 14:37:50;;;;;;;3.02;1.52;;;;;;;14.31;25.25;100556.66;1765288;81;25624;-56
2021/04/25 14:40:19;;;;;;;5.55;3.02;;;;;;;13.89;25.29;100567.38;1763048;81;25582;-57
2021/04/25 14:42:49;;;;;;;3.10;2.23;;;;;;;13.40;25.92;100578.51;1767909;81;25576;-57
2021/04/25 14:45:18;;;;;;;3.22;1.90;;;;;;;12.77;27.12;100588.00;1767358;81;25613;-57
2021/04/25 14:47:48;;;;;;;3.00;2.00;;;;;;;12.18;28.69;100599.16;1767657;81;25877;-56
2021/04/25 14:50:19;;;;;;;2.87;2.35;;;;;;;11.74;29.60;100586.12;1765260;81;25587;-56
2021/04/25 14:52:46;;;;;;;3.30;1.95;;;;;;;11.33;30.52;100577.62;1767106;81;25587;-56
2021/04/25 14:55:15;;;;;;;3.62;2.10;;;;;;;10.97;31.22;100573.59;1767417;81;25729;-56
2021/04/25 14:57:44;;;;;;;3.92;2.10;;;;;;;10.70;32.05;100568.47;1767551;81;25545;-56
2021/04/25 15:00:15;;;;;;;5.17;3.20;;;;;;;10.49;32.92;100574.04;1749821;81;25774;-54
2021/04/25 15:02:42;;;;;;;3.95;2.37;;;;;;;10.22;33.20;100583.73;1736975;82;25731;-56
2021/04/25 15:05:12;;;;;;;2.67;1.50;;;;;;;9.98;33.44;100592.02;1737262;81;26318;-57
2021/04/25 15:07:43;;;;;;;4.25;1.75;;;;;;;9.80;33.64;100605.82;1708433;82;32123;-56
2021/04/25 15:10:11;;;;;;;3.15;1.65;;;;;;;9.59;34.10;100606.71;1736145;82;25634;-56
2021/04/25 15:12:38;;;;;;;2.87;1.72;;;;;;;9.48;34.48;100595.25;1736210;82;25719;-56
2021/04/25 15:15:08;;;;;;;2.90;1.65;;;;;;;9.48;34.96;100593.37;1735869;82;25657;-56
2021/04/25 15:17:35;;;;;;;3.22;1.57;;;;;;;9.45;34.77;100582.33;1707253;82;26309;-56
2021/04/25 15:20:05;;;;;;;3.08;1.72;;;;;;;9.43;34.93;100582.64;1736132;82;25603;-56
2021/04/25 15:22:32;;;;;;;3.37;1.80;;;;;;;9.33;34.71;100585.47;1706896;82;25690;-55
2021/04/25 15:25:02;;;;;;;2.47;1.40;;;;;;;9.35;35.09;100584.10;1736181;82;26626;-56
2021/04/25 15:27:29;;;;;;;1.90;1.50;;;;;;;9.41;34.49;100582.67;1736347;81;25703;-56
2021/04/25 15:29:56;;;;;;;4.83;1.62;;;;;;;9.50;34.71;100586.30;1737804;81;25628;-56
2021/04/25 15:32:23;;;;;;;2.50;1.47;;;;;;;9.63;34.90;100582.84;1739611;81;26261;-56
2021/04/25 15:34:51;;;;;;;3.52;1.80;;;;;;;9.71;34.25;100578.12;1736266;82;25581;-56
2021/04/25 15:37:21;;;;;;;2.75;1.77;;;;;;;9.75;34.36;100573.48;1754973;81;26595;-55
2021/04/25 15:39:51;;;;;;;2.10;1.22;;;;;;;9.79;33.48;100576.66;1754803;81;25660;-56
2021/04/25 15:42:21;;;;;;;3.40;1.72;;;;;;;9.68;33.40;100570.61;1755232;81;25545;-55
2021/04/25 15:44:49;;;;;;;6.10;1.85;;;;;;;9.66;33.67;100568.76;1763503;79;25656;-57
2021/04/25 15:47:18;;;;;;;4.95;2.20;;;;;;;9.69;33.96;100570.88;1728595;83;25676;-56
2021/04/25 15:49:47;;;;;;;2.58;1.98;;;;;;;9.67;33.49;100562.80;1728563;83;25874;-57
2021/04/25 15:52:18;;;;;;;4.62;2.00;;;;;;;9.58;33.06;100574.83;1724120;81;25765;-56
2021/04/25 15:54:45;;;;;;;3.12;2.25;;;;;;;9.52;33.27;100571.97;1779223;78;25599;-56
2021/04/25 15:57:11;;;;;;;3.05;1.67;;;;;;;9.44;33.31;100574.78;1765815;79;25750;-56
2021/04/25 15:59:38;;;;;;;2.92;1.77;;;;;;;9.35;33.31;100567.91;1750646;80;25698;-56
2021/04/25 16:02:05;;;;;;;4.37;1.90;;;;;;;9.26;33.47;100573.72;1750887;81;27994;-56
2021/04/25 16:04:32;;;;;;;4.17;2.15;;;;;;;9.18;33.72;100574.91;1727742;81;26377;-58
2021/04/25 16:06:59;;;;;;;3.87;2.37;;;;;;;9.19;33.92;100567.88;1750959;81;25704;-56
2021/04/25 16:09:26;;;;;;;3.50;1.72;;;;;;;9.17;33.70;100579.51;1750874;81;25689;-56
2021/04/25 16:11:52;;;;;;;3.40;1.67;;;;;;;9.12;33.52;100578.23;1751103;81;25617;-56
2021/04/25 16:14:19;;;;;;;2.92;1.67;;;;;;;9.05;33.51;100579.16;1753348;79;25710;-57
2021/04/25 16:16:47;;;;;;;4.62;1.77;;;;;;;9.00;33.40;100584.06;1793836;79;26311;-56
2021/04/25 16:19:14;;;;;;;2.15;1.40;;;;;;;8.95;33.54;100586.28;1734509;81;26211;-56
2021/04/25 16:21:41;;;;;;;4.17;2.08;;;;;;;8.89;33.35;100587.45;1779777;79;25681;-56
2021/04/25 16:24:09;;;;;;;13.28;6.70;;;;;;;8.76;33.47;100590.30;1781079;79;25620;-56
2021/04/25 16:26:37;;;;;;;5.75;2.20;;;;;;;8.60;34.10;100592.40;1757830;81;26773;-56
2021/04/25 16:29:04;;;;;;;2.17;1.52;;;;;;;8.38;34.48;100592.89;1757451;81;25662;-55
2021/04/25 16:31:32;;;;;;;2.77;1.92;;;;;;;8.21;34.84;100588.50;1757580;81;26380;-54
2021/04/25 16:33:59;;;;;;;3.47;2.20;;;;;;;8.11;35.02;100582.67;1757743;81;26238;-55
2021/04/25 16:36:29;;;;;;;4.42;2.52;;;;;;;7.99;35.17;100585.74;1757596;81;25624;-56
2021/04/25 16:38:56;;;;;;;4.75;2.02;;;;;;;7.92;35.46;100585.83;1757620;81;25730;-56
2021/04/25 16:41:25;;;;;;;7.30;2.27;;;;;;;7.82;35.42;100593.45;1757614;81;26204;-64
2021/04/25 16:43:52;;;;;;;3.35;2.20;;;;;;;7.75;35.82;100594.33;1757490;81;25959;-64
2021/04/25 16:46:19;;;;;;;4.97;2.20;;;;;;;7.64;36.00;100591.72;1757813;81;25799;-63
2021/04/25 16:48:46;;;;;;;2.65;1.92;;;;;;;7.57;36.15;100595.25;1757993;81;25594;-63
2021/04/25 16:51:13;;;;;;;6.87;1.98;;;;;;;7.50;36.43;100593.98;1747935;80;26287;-64
2021/04/25 16:53:43;;;;;;;3.85;2.15;;;;;;;7.38;36.84;100594.33;1782555;79;25748;-63
2021/04/25 16:56:08;;;;;;;2.87;2.15;;;;;;;7.23;37.20;100593.33;1782599;79;25993;-63
2021/04/25 16:58:35;;;;;;;4.10;2.40;;;;;;;7.14;37.41;100602.30;1769711;79;25739;-63
2021/04/25 17:01:02;;;;;;;4.83;2.83;;;;;;;7.07;37.87;100607.42;1740118;82;25692;-64
2021/04/25 17:03:28;;;;;;;5.87;3.25;;;;;;;7.02;38.47;100618.77;1738477;82;25988;-64
2021/04/25 17:05:55;;;;;;;4.62;2.30;;;;;;;6.90;39.10;100616.40;1767874;81;25757;-63
2021/04/25 17:08:22;;;;;;;5.45;2.83;;;;;;;6.73;40.13;100609.47;1739946;82;25716;-64
2021/04/25 17:10:49;;;;;;;6.92;3.20;;;;;;;6.59;41.22;100611.15;1716773;81;26411;-64
2021/04/25 17:13:16;;;;;;;4.22;2.45;;;;;;;6.52;41.91;100611.95;1716006;82;25878;-64
2021/04/25 17:15:43;;;;;;;5.28;2.65;;;;;;;6.38;42.13;100615.77;1722044;82;25853;-63
2021/04/25 17:18:10;;;;;;;5.33;2.92;;;;;;;6.27;42.75;100612.85;1716896;82;25758;-63
2021/04/25 17:20:37;;;;;;;3.12;2.40;;;;;;;6.17;42.36;100614.46;1718240;82;25625;-63
2021/04/25 17:23:04;;;;;;;4.87;2.90;;;;;;;6.11;43.00;100618.25;1723526;83;25597;-63
2021/04/25 17:25:31;;;;;;;4.35;2.70;;;;;;;5.97;43.76;100619.31;1755057;81;26341;-63
2021/04/25 17:27:57;;;;;;;4.95;3.08;;;;;;;5.86;43.34;100617.70;1755155;81;25720;-63
2021/04/25 17:30:24;;;;;;;4.97;2.67;;;;;;;5.79;43.76;100630.05;1755175;81;25623;-63
2021/04/25 17:32:52;;;;;;;4.60;3.50;;;;;;;5.70;44.32;100624.13;1755131;81;26163;-62
2021/04/25 17:35:21;;;;;;;17.30;8.48;;;;;;;5.63;45.16;100624.94;1719432;82;25730;-65
2021/04/25 17:37:49;;;;;;;;;;;;;;;5.52;45.26;100621.45;1729133;82;25710;-62
2021/04/25 17:40:17;;;;;;;7.60;4.08;;;;;;;5.41;45.59;100621.95;1734773;82;26366;-63
2021/04/25 17:42:47;;;;;;;4.30;3.17;;;;;;;5.36;46.03;100623.28;1734610;82;25898;-64
2021/04/25 17:45:16;;;;;;;6.25;3.22;;;;;;;5.30;46.31;100629.73;1734811;82;25742;-62
2021/04/25 17:47:45;;;;;;;4.08;2.95;;;;;;;5.20;45.86;100631.84;1709667;82;25743;-63
2021/04/25 17:50:14;;;;;;;5.70;3.35;;;;;;;5.13;46.89;100625.94;1709473;82;25620;-62
2021/04/25 17:52:44;;;;;;;7.17;3.42;;;;;;;5.06;46.24;100631.55;1734850;82;26712;-56